Manvel, Texas
Current Conditions -  °F | °C
As of 7:53 PM on Thursday 20 Nov 2014 (Local Time) from KLVJ Reporting Station
Light Rain Light Rain  
Wind Chill: 64°   Ceiling: 5500
Heat Index: 64°   Visibility: 8mi
Dew Point: 61°   Wind: 7mph
Humidity: 90%   Direction: 140°SE
Pressure: 30.12"   Gusts: NA
Location:  29.46°N, 95.36°W
Report Text: KLVJ 210153Z AUTO 14006KT 8SM -RA FEW040 BKN055 OVC070 18/16 A3012 RMK AO2 SLP199 P0003 T01780161
Loading
Personal Weather Stations






























Interactive Weather Map New forecast layout! Learn more

10-Day Weather Forecast

Advertisements
Track Severe Weather on mobile